^^
Your Local Weather - Clay, NY Station Historical Data
Daily Summary for April 12, 2017 Units:  Metric    English   Both
« Previous Day
Next Day »
Daily Weekly Monthly Yearly Custom
  High: Low: Average:
Temperature: 13.1 °C 4.9 °C 8.6 °C
Dew Point: 12 °C 0.7 °C 4.5 °C
Humidity: 94% 65% 76%
Wind Speed: 9.7km/h 0km/h 4.3km/h
Wind Gust: 19.3km/h - -
Wind- - WNW
Pressure: 1027.7 hPa 1016.8 hPa -
Precipitation: 0 mm    
Historical Graphs
 
 
Tabular Data for April 12, 2017
Time Temperature Dew Point Pressure Wind Wind Speed Wind Gust Humidity Rainfall Rate (Hourly) solar
00:04 10.9 °C 9.8 °C 1016.8 hPa Calm     93% 0 mm 0 W/m2
00:10 10.9 °C 9.8 °C 1016.8 hPa Calm     93% 0 mm 0 W/m2
00:16 11.1 °C 9.9 °C 1016.8 hPa Calm     93% 0 mm 0 W/m2
00:22 11.1 °C 9.9 °C 1016.8 hPa Calm   1.6 km/h 93% 0 mm 0 W/m2
00:28 11.2 °C 10.1 °C 1016.8 hPa Calm   1.6 km/h 93% 0 mm 0 W/m2
00:34 11.2 °C 10.1 °C 1016.8 hPa Calm   1.6 km/h 93% 0 mm 0 W/m2
00:40 11.3 °C 10.2 °C 1016.8 hPa Calm     93% 0 mm 0 W/m2
00:46 11.4 °C 10.3 °C 1016.8 hPa Calm     93% 0 mm 0 W/m2
00:52 11.5 °C 10.6 °C 1017.2 hPa Calm     94% 0 mm 0 W/m2
00:58 11.6 °C 10.7 °C 1017.2 hPa NNW 1.6 km/h 4.8 km/h 94% 0 mm 0 W/m2
01:04 11.6 °C 10.7 °C 1017.2 hPa NNW 1.6 km/h 1.6 km/h 94% 0 mm 0 W/m2
01:10 11.7 °C 10.6 °C 1017.2 hPa Calm     93% 0 mm 0 W/m2
01:16 11.7 °C 10.6 °C 1017.2 hPa Calm     93% 0 mm 0 W/m2
01:22 11.7 °C 10.6 °C 1017.2 hPa Calm     93% 0 mm 0 W/m2
01:28 11.7 °C 10.6 °C 1017.2 hPa Calm     93% 0 mm 0 W/m2
01:34 11.6 °C 10.7 °C 1017.5 hPa Calm     94% 0 mm 0 W/m2
01:40 11.6 °C 10.7 °C 1017.5 hPa Calm     94% 0 mm 0 W/m2
01:46 11.6 °C 10.7 °C 1017.5 hPa Calm     94% 0 mm 0 W/m2
01:52 11.6 °C 10.7 °C 1017.5 hPa Calm     94% 0 mm 0 W/m2
01:58 11.7 °C 10.7 °C 1017.5 hPa Calm     94% 0 mm 0 W/m2
02:04 11.8 °C 10.9 °C 1017.5 hPa WNW 1.6 km/h 1.6 km/h 94% 0 mm 0 W/m2
02:10 12.3 °C 11.4 °C 1017.8 hPa West 1.6 km/h 1.6 km/h 94% 0 mm 0 W/m2
02:16 12.8 °C 11.9 °C 1017.8 hPa WNW 1.6 km/h 4.8 km/h 94% 0 mm 0 W/m2
02:22 13.1 °C 12 °C 1017.8 hPa NW 4.8 km/h 9.7 km/h 93% 0 mm 0 W/m2
02:28 12.9 °C 11.4 °C 1017.8 hPa WNW 8 km/h 9.7 km/h 91% 0 mm 0 W/m2
02:34 12.8 °C 10.8 °C 1017.8 hPa NW 8 km/h 12.9 km/h 88% 0 mm 0 W/m2
02:40 12.5 °C 10.1 °C 1017.8 hPa NW 9.7 km/h 9.7 km/h 85% 0 mm 0 W/m2
02:46 12.3 °C 9.8 °C 1018.2 hPa WNW 6.4 km/h 9.7 km/h 85% 0 mm 0 W/m2
02:52 11.9 °C 9.3 °C 1018.2 hPa NW 6.4 km/h 8 km/h 84% 0 mm 0 W/m2
02:58 11.7 °C 8.7 °C 1018.2 hPa NW 6.4 km/h 8 km/h 82% 0 mm 0 W/m2
03:04 11.4 °C 8.7 °C 1018.2 hPa West 6.4 km/h 9.7 km/h 83% 0 mm 0 W/m2
03:10 11.2 °C 8.2 °C 1018.5 hPa WNW 6.4 km/h 6.4 km/h 82% 0 mm 0 W/m2
03:15 10.9 °C 7.9 °C 1018.5 hPa WNW 6.4 km/h 9.7 km/h 82% 0 mm 0 W/m2
03:22 10.7 °C 7.6 °C 1018.5 hPa WNW 8 km/h 8 km/h 81% 0 mm 0 W/m2
03:28 10.7 °C 7.6 °C 1018.8 hPa WNW 6.4 km/h 8 km/h 81% 0 mm 0 W/m2
03:34 10.5 °C 7.2 °C 1018.8 hPa WNW 6.4 km/h 6.4 km/h 80% 0 mm 0 W/m2
03:40 10.3 °C 7.1 °C 1018.8 hPa WNW 6.4 km/h 6.4 km/h 80% 0 mm 0 W/m2
03:46 10.2 °C 6.9 °C 1018.8 hPa NW 6.4 km/h 9.7 km/h 80% 0 mm 0 W/m2
03:52 10.1 °C 7 °C 1018.8 hPa NW 4.8 km/h 4.8 km/h 81% 0 mm 0 W/m2
04:10 9.8 °C 6.9 °C 1019.2 hPa NW 4.8 km/h 6.4 km/h 82% 0 mm 0 W/m2
04:16 9.8 °C 6.8 °C 1019.2 hPa NW 4.8 km/h 6.4 km/h 82% 0 mm 0 W/m2
04:22 9.7 °C 6.8 °C 1019.2 hPa NW 4.8 km/h 4.8 km/h 82% 0 mm 0 W/m2
04:28 9.7 °C 6.7 °C 1019.2 hPa WNW 3.2 km/h 4.8 km/h 82% 0 mm 0 W/m2
04:34 9.6 °C 6.7 °C 1019.2 hPa WNW 3.2 km/h 4.8 km/h 82% 0 mm 0 W/m2
04:40 9.6 °C 6.9 °C 1019.2 hPa WNW 3.2 km/h 3.2 km/h 83% 0 mm 0 W/m2
04:46 9.6 °C 6.8 °C 1019.2 hPa WNW 3.2 km/h 8 km/h 83% 0 mm 0 W/m2
04:52 9.5 °C 6.8 °C 1019.5 hPa WNW 3.2 km/h 3.2 km/h 83% 0 mm 0 W/m2
04:58 9.5 °C 6.8 °C 1019.5 hPa NW 3.2 km/h 6.4 km/h 83% 0 mm 0 W/m2
05:04 9.4 °C 6.7 °C 1019.5 hPa NW 3.2 km/h 3.2 km/h 83% 0 mm 0 W/m2
05:10 9.4 °C 6.5 °C 1019.5 hPa WNW 4.8 km/h 6.4 km/h 82% 0 mm 0 W/m2
05:16 9.4 °C 6.4 °C 1019.9 hPa NW 4.8 km/h 6.4 km/h 82% 0 mm 0 W/m2
05:22 9.4 °C 6.4 °C 1019.9 hPa NW 3.2 km/h 3.2 km/h 82% 0 mm 0 W/m2
05:28 9.3 °C 6.4 °C 1019.9 hPa NW 1.6 km/h 6.4 km/h 82% 0 mm 0 W/m2
05:34 9.3 °C 6.4 °C 1019.9 hPa NW 3.2 km/h 6.4 km/h 82% 0 mm 0 W/m2
05:40 9.1 °C 6 °C 1019.9 hPa NNW 4.8 km/h 9.7 km/h 81% 0 mm 0 W/m2
05:46 9 °C 5.9 °C 1019.9 hPa NW 4.8 km/h 12.9 km/h 81% 0 mm 0 W/m2
05:58 8.8 °C 5.7 °C 1020.2 hPa WNW 4.8 km/h 8 km/h 81% 0 mm 0 W/m2
06:03 8.8 °C 5.7 °C 1020.2 hPa North 3.2 km/h 6.4 km/h 81% 0 mm 0 W/m2
06:10 8.7 °C 5.7 °C 1020.5 hPa NW 3.2 km/h 3.2 km/h 81% 0 mm 0 W/m2
06:16 8.7 °C 5.6 °C 1020.5 hPa NW 1.6 km/h 3.2 km/h 81% 0 mm 0 W/m2
06:22 8.7 °C 5.6 °C 1020.5 hPa NW 1.6 km/h 1.6 km/h 81% 0 mm 0 W/m2
06:28 8.6 °C 5.6 °C 1020.5 hPa NW 1.6 km/h 3.2 km/h 81% 0 mm 0 W/m2
06:34 8.7 °C 5.4 °C 1020.9 hPa WNW 1.6 km/h 4.8 km/h 80% 0 mm 0 W/m2
06:40 8.6 °C 5.3 °C 1020.9 hPa WNW 1.6 km/h 1.6 km/h 80% 0 mm 0 W/m2
06:45 8.7 °C 5.2 °C 1021.2 hPa WNW 1.6 km/h 1.6 km/h 79% 0 mm 0 W/m2
06:52 8.7 °C 5.4 °C 1020.9 hPa WNW 1.6 km/h 1.6 km/h 80% 0 mm 9 W/m2
06:58 8.6 °C 5.3 °C 1020.9 hPa Calm   3.2 km/h 80% 0 mm 11 W/m2
07:04 8.6 °C 5.1 °C 1021.2 hPa WNW 1.6 km/h 1.6 km/h 79% 0 mm 12 W/m2
07:10 8.6 °C 5 °C 1021.2 hPa WNW 1.6 km/h 1.6 km/h 78% 0 mm 9 W/m2
07:16 8.6 °C 5 °C 1021.6 hPa WNW 1.6 km/h 1.6 km/h 78% 0 mm 7 W/m2
07:22 8.6 °C 5.2 °C 1021.6 hPa Calm     79% 0 mm 12 W/m2
07:28 8.6 °C 5.2 °C 1021.2 hPa Calm     79% 0 mm 19 W/m2
07:34 8.6 °C 5.2 °C 1021.6 hPa Calm   3.2 km/h 79% 0 mm 16 W/m2
07:40 8.6 °C 5.2 °C 1021.6 hPa Calm   3.2 km/h 79% 0 mm 23 W/m2
07:45 8.6 °C 5 °C 1021.6 hPa NW 1.6 km/h 3.2 km/h 78% 0 mm 26 W/m2
07:52 8.6 °C 4.8 °C 1021.6 hPa NW 1.6 km/h 4.8 km/h 77% 0 mm 18 W/m2
07:58 8.6 °C 4.6 °C 1021.6 hPa WNW 3.2 km/h 9.7 km/h 76% 0 mm 21 W/m2
08:04 8.6 °C 4.6 °C 1021.6 hPa WNW 4.8 km/h 4.8 km/h 76% 0 mm 26 W/m2
08:10 8.6 °C 4.6 °C 1021.9 hPa WNW 3.2 km/h 3.2 km/h 76% 0 mm 26 W/m2
08:15 8.6 °C 4.4 °C 1021.9 hPa WNW 4.8 km/h 12.9 km/h 75% 0 mm 21 W/m2
08:22 8.5 °C 4.3 °C 1021.9 hPa WNW 4.8 km/h 4.8 km/h 75% 0 mm 26 W/m2
08:28 8.4 °C 4.1 °C 1021.9 hPa WNW 6.4 km/h 6.4 km/h 74% 0 mm 39 W/m2
08:34 8.4 °C 4 °C 1021.9 hPa WNW 6.4 km/h 6.4 km/h 74% 0 mm 60 W/m2
08:39 8.4 °C 4 °C 1022.2 hPa NW 6.4 km/h 6.4 km/h 74% 0 mm 53 W/m2
08:46 8.3 °C 3.9 °C 1022.2 hPa WNW 8 km/h 8 km/h 74% 0 mm 56 W/m2
08:52 8.2 °C 3.8 °C 1022.2 hPa West 6.4 km/h 6.4 km/h 74% 0 mm 47 W/m2
08:58 8.1 °C 3.6 °C 1022.2 hPa WSW 8 km/h 9.7 km/h 73% 0 mm 44 W/m2
09:03 8 °C 3.7 °C 1022.2 hPa WNW 8 km/h 8 km/h 74% 0 mm 39 W/m2
09:09 7.9 °C 3.6 °C 1022.6 hPa WNW 6.4 km/h 6.4 km/h 74% 0 mm 35 W/m2
09:16 7.8 °C 3.5 °C 1022.6 hPa WNW 6.4 km/h 12.9 km/h 74% 0 mm 40 W/m2
09:22 7.7 °C 3.4 °C 1022.6 hPa WNW 6.4 km/h 8 km/h 74% 0 mm 44 W/m2
09:28 7.7 °C 3.5 °C 1022.6 hPa WNW 6.4 km/h 11.3 km/h 75% 0 mm 56 W/m2
09:34 7.6 °C 3.4 °C 1022.6 hPa WNW 8 km/h 8 km/h 75% 0 mm 97 W/m2
09:40 7.6 °C 3.7 °C 1022.6 hPa NNW 8 km/h 14.5 km/h 76% 0 mm 139 W/m2
09:46 7.7 °C 3.7 °C 1022.9 hPa NW 8 km/h 14.5 km/h 76% 0 mm 123 W/m2
09:52 7.6 °C 3.7 °C 1022.9 hPa WNW 6.4 km/h 16.1 km/h 76% 0 mm 84 W/m2
09:58 7.4 °C 3.5 °C 1023.2 hPa West 8 km/h 16.1 km/h 76% 0 mm 81 W/m2
10:04 7.3 °C 3.6 °C 1023.2 hPa WNW 8 km/h 9.7 km/h 77% 0 mm 81 W/m2
10:10 7.3 °C 3.7 °C 1023.2 hPa West 6.4 km/h 8 km/h 78% 0 mm 83 W/m2
10:16 7.3 °C 3.5 °C 1023.2 hPa NW 4.8 km/h 8 km/h 77% 0 mm 90 W/m2
10:22 7.2 °C 3.7 °C 1023.2 hPa NW 4.8 km/h 8 km/h 78% 0 mm 97 W/m2
10:28 7.2 °C 3.6 °C 1023.2 hPa WSW 4.8 km/h 11.3 km/h 78% 0 mm 116 W/m2
10:34 7.2 °C 3.7 °C 1023.2 hPa NW 4.8 km/h 4.8 km/h 78% 0 mm 139 W/m2
10:40 7.3 °C 3.5 °C 1023.2 hPa West 3.2 km/h 8 km/h 77% 0 mm 149 W/m2
10:46 7.4 °C 3.6 °C 1023.2 hPa West 4.8 km/h 8 km/h 77% 0 mm 118 W/m2
10:52 7.4 °C 3.6 °C 1023.2 hPa NW 4.8 km/h 6.4 km/h 77% 0 mm 116 W/m2
10:58 7.4 °C 3.5 °C 1023.6 hPa WNW 6.4 km/h 8 km/h 76% 0 mm 258 W/m2
11:04 7.8 °C 3.8 °C 1023.6 hPa NW 6.4 km/h 8 km/h 76% 0 mm 294 W/m2
11:10 8.1 °C 3.9 °C 1023.6 hPa West 6.4 km/h 19.3 km/h 75% 0 mm 304 W/m2
11:16 8.2 °C 3.8 °C 1023.6 hPa WNW 6.4 km/h 19.3 km/h 74% 0 mm 306 W/m2
11:22 8.4 °C 3.8 °C 1023.6 hPa WNW 6.4 km/h 9.7 km/h 73% 0 mm 304 W/m2
11:28 8.3 °C 3.6 °C 1023.6 hPa WNW 6.4 km/h 9.7 km/h 72% 0 mm 258 W/m2
11:34 8.1 °C 3.4 °C 1023.6 hPa NNW 6.4 km/h 6.4 km/h 72% 0 mm 165 W/m2
11:39 7.8 °C 2.7 °C 1023.6 hPa NW 6.4 km/h 8 km/h 70% 0 mm 174 W/m2
11:46 7.7 °C 2.3 °C 1023.9 hPa West 6.4 km/h 9.7 km/h 69% 0 mm 218 W/m2
11:52 7.8 °C 2.9 °C 1023.9 hPa WNW 4.8 km/h 9.7 km/h 71% 0 mm 216 W/m2
11:58 7.8 °C 2.2 °C 1023.9 hPa West 6.4 km/h 11.3 km/h 68% 0 mm 204 W/m2
12:04 7.6 °C 2.4 °C 1023.9 hPa WNW 6.4 km/h 8 km/h 70% 0 mm 207 W/m2
12:09 7.7 °C 2.8 °C 1023.6 hPa WNW 6.4 km/h 6.4 km/h 71% 0 mm 264 W/m2
12:16 7.9 °C 2.6 °C 1023.6 hPa West 3.2 km/h 6.4 km/h 69% 0 mm 271 W/m2
12:22 8.1 °C 2.9 °C 1023.6 hPa NW 3.2 km/h 8 km/h 70% 0 mm 302 W/m2
12:28 8.1 °C 2.8 °C 1023.6 hPa NW 4.8 km/h 8 km/h 69% 0 mm 320 W/m2
12:34 8.3 °C 3.2 °C 1023.6 hPa WSW 4.8 km/h 4.8 km/h 70% 0 mm 288 W/m2
12:40 8.4 °C 3.3 °C 1023.6 hPa NNW 3.2 km/h 6.4 km/h 70% 0 mm 283 W/m2
12:45 8.4 °C 2.8 °C 1023.6 hPa WSW 3.2 km/h 8 km/h 68% 0 mm 290 W/m2
12:52 8.4 °C 3.3 °C 1023.6 hPa West 4.8 km/h 6.4 km/h 70% 0 mm 439 W/m2
12:58 8.8 °C 3.4 °C 1023.6 hPa WNW 4.8 km/h 8 km/h 69% 0 mm 429 W/m2
13:04 8.9 °C 3.5 °C 1023.6 hPa NW 4.8 km/h 6.4 km/h 69% 0 mm 406 W/m2
13:10 9.1 °C 3.2 °C 1023.9 hPa West 3.2 km/h 3.2 km/h 67% 0 mm 378 W/m2
13:16 9.1 °C 3.4 °C 1023.6 hPa WSW 3.2 km/h 4.8 km/h 68% 0 mm 257 W/m2
13:22 9.1 °C 3.5 °C 1023.9 hPa WSW 3.2 km/h 8 km/h 68% 0 mm 243 W/m2
13:28 9.1 °C 3.3 °C 1023.6 hPa WNW 4.8 km/h 8 km/h 67% 0 mm 264 W/m2
13:34 9.2 °C 3.4 °C 1023.9 hPa WNW 4.8 km/h 6.4 km/h 67% 0 mm 255 W/m2
13:40 9.2 °C 3.3 °C 1023.6 hPa WNW 4.8 km/h 4.8 km/h 67% 0 mm 135 W/m2
13:46 9.3 °C 3.4 °C 1023.9 hPa WSW 3.2 km/h 6.4 km/h 67% 0 mm 211 W/m2
13:52 9.3 °C 3.3 °C 1023.9 hPa WSW 3.2 km/h 6.4 km/h 66% 0 mm 227 W/m2
13:58 9.3 °C 3.4 °C 1023.9 hPa NW 4.8 km/h 4.8 km/h 67% 0 mm 258 W/m2
14:04 9.3 °C 3.5 °C 1023.9 hPa WNW 4.8 km/h 9.7 km/h 67% 0 mm 251 W/m2
14:10 9.3 °C 3.3 °C 1023.9 hPa WNW 4.8 km/h 4.8 km/h 66% 0 mm 287 W/m2
14:16 9.3 °C 3.2 °C 1023.9 hPa NNW 6.4 km/h 12.9 km/h 66% 0 mm 327 W/m2
14:22 9.3 °C 3.5 °C 1023.9 hPa NNW 4.8 km/h 8 km/h 67% 0 mm 290 W/m2
14:28 9.3 °C 3.2 °C 1023.9 hPa WNW 4.8 km/h 12.9 km/h 66% 0 mm 264 W/m2
14:34 9.2 °C 3.4 °C 1023.9 hPa West 6.4 km/h 6.4 km/h 67% 0 mm 213 W/m2
14:40 8.9 °C 2.9 °C 1023.9 hPa WNW 4.8 km/h 4.8 km/h 66% 0 mm 199 W/m2
14:46 8.8 °C 3.1 °C 1023.9 hPa WNW 4.8 km/h 6.4 km/h 67% 0 mm 216 W/m2
14:52 8.8 °C 2.8 °C 1023.9 hPa WNW 4.8 km/h 6.4 km/h 66% 0 mm 327 W/m2
14:58 8.9 °C 3.2 °C 1023.9 hPa NW 4.8 km/h 6.4 km/h 67% 0 mm 323 W/m2
15:04 9.1 °C 3.3 °C 1023.9 hPa NNW 4.8 km/h 6.4 km/h 67% 0 mm 262 W/m2
15:10 9.1 °C 3.1 °C 1023.9 hPa WNW 4.8 km/h 4.8 km/h 66% 0 mm 320 W/m2
15:16 9.1 °C 3.3 °C 1023.9 hPa NW 4.8 km/h 8 km/h 67% 0 mm 257 W/m2
15:22 8.9 °C 2.7 °C 1023.9 hPa WNW 6.4 km/h 11.3 km/h 65% 0 mm 251 W/m2
15:28 9 °C 3.2 °C 1023.9 hPa NW 6.4 km/h 11.3 km/h 67% 0 mm 315 W/m2
15:34 9.1 °C 3.3 °C 1023.9 hPa NNW 4.8 km/h 8 km/h 67% 0 mm 269 W/m2
15:40 8.8 °C 3.1 °C 1023.9 hPa NNW 6.4 km/h 9.7 km/h 67% 0 mm 269 W/m2
15:46 8.8 °C 3.4 °C 1023.9 hPa NW 8 km/h 9.7 km/h 69% 0 mm 360 W/m2
15:52 9 °C 3.6 °C 1023.9 hPa NNW 6.4 km/h 9.7 km/h 69% 0 mm 480 W/m2
15:58 9 °C 3.4 °C 1023.9 hPa NW 4.8 km/h 9.7 km/h 68% 0 mm 251 W/m2
16:03 8.7 °C 3.5 °C 1024.3 hPa NW 4.8 km/h 12.9 km/h 70% 0 mm 200 W/m2
16:10 8.4 °C 3.1 °C 1024.3 hPa WNW 6.4 km/h 6.4 km/h 69% 0 mm 251 W/m2
16:16 8.3 °C 3 °C 1024.3 hPa WNW 6.4 km/h 9.7 km/h 69% 0 mm 241 W/m2
16:22 8.3 °C 3.1 °C 1024.3 hPa NNW 8 km/h 12.9 km/h 70% 0 mm 214 W/m2
16:28 8.1 °C 2.9 °C 1024.3 hPa West 6.4 km/h 12.9 km/h 70% 0 mm 142 W/m2
16:34 8.1 °C 2.7 °C 1024.6 hPa NNW 6.4 km/h 9.7 km/h 69% 0 mm 146 W/m2
16:39 7.9 °C 2.8 °C 1024.6 hPa WNW 6.4 km/h 6.4 km/h 70% 0 mm 160 W/m2
16:46 7.9 °C 2.8 °C 1024.6 hPa NNW 4.8 km/h 6.4 km/h 70% 0 mm 160 W/m2
16:52 7.9 °C 2.6 °C 1024.6 hPa WNW 4.8 km/h 4.8 km/h 69% 0 mm 163 W/m2
16:58 7.9 °C 2.8 °C 1024.6 hPa North 3.2 km/h 6.4 km/h 70% 0 mm 134 W/m2
17:04 7.8 °C 2.3 °C 1024.6 hPa WNW 4.8 km/h 8 km/h 68% 0 mm 120 W/m2
17:10 7.7 °C 2.4 °C 1024.6 hPa NW 6.4 km/h 8 km/h 69% 0 mm 109 W/m2
17:16 7.6 °C 2.3 °C 1024.6 hPa NNW 8 km/h 9.7 km/h 69% 0 mm 105 W/m2
17:22 7.6 °C 2.5 °C 1024.9 hPa NW 6.4 km/h 6.4 km/h 70% 0 mm 105 W/m2
17:28 7.7 °C 2.7 °C 1024.9 hPa NNW 4.8 km/h 8 km/h 71% 0 mm 74 W/m2
17:34 7.5 °C 2.6 °C 1024.9 hPa NNW 4.8 km/h 4.8 km/h 71% 0 mm 60 W/m2
17:40 7.5 °C 2.8 °C 1024.6 hPa NNW 3.2 km/h 3.2 km/h 72% 0 mm 65 W/m2
17:45 7.5 °C 2.8 °C 1024.9 hPa WNW 3.2 km/h 8 km/h 72% 0 mm 53 W/m2
17:52 7.5 °C 2.8 °C 1024.9 hPa NW 3.2 km/h 6.4 km/h 72% 0 mm 33 W/m2
17:58 7.5 °C 2.9 °C 1024.9 hPa NNW 3.2 km/h 6.4 km/h 73% 0 mm 44 W/m2
18:04 7.5 °C 2.8 °C 1024.9 hPa WNW 3.2 km/h 3.2 km/h 72% 0 mm 42 W/m2
18:10 7.5 °C 2.8 °C 1024.9 hPa WNW 3.2 km/h 3.2 km/h 72% 0 mm 33 W/m2
18:16 7.6 °C 2.8 °C 1024.9 hPa WNW 3.2 km/h 3.2 km/h 72% 0 mm 30 W/m2
18:22 7.6 °C 3 °C 1024.9 hPa WNW 3.2 km/h 3.2 km/h 73% 0 mm 25 W/m2
18:28 7.5 °C 2.8 °C 1024.9 hPa WNW 3.2 km/h 4.8 km/h 72% 0 mm 21 W/m2
18:34 7.6 °C 2.8 °C 1025.3 hPa NW 3.2 km/h 4.8 km/h 72% 0 mm 19 W/m2
18:40 7.5 °C 2.9 °C 1025.3 hPa NW 3.2 km/h 3.2 km/h 73% 0 mm 14 W/m2
18:46 7.4 °C 2.9 °C 1025.3 hPa North 1.6 km/h 3.2 km/h 73% 0 mm 12 W/m2
18:52 7.4 °C 3.1 °C 1024.9 hPa North 1.6 km/h 1.6 km/h 74% 0 mm 19 W/m2
18:58 7.4 °C 3.1 °C 1024.9 hPa WNW 1.6 km/h 3.2 km/h 74% 0 mm 18 W/m2
19:04 7.3 °C 3 °C 1024.9 hPa WNW 1.6 km/h 3.2 km/h 74% 0 mm 16 W/m2
19:10 7.3 °C 3 °C 1024.9 hPa Calm     74% 0 mm 12 W/m2
19:16 7.3 °C 3 °C 1024.9 hPa Calm     74% 0 mm 7 W/m2
19:22 7.3 °C 2.8 °C 1024.9 hPa Calm     73% 0 mm 5 W/m2
19:28 7.4 °C 3.1 °C 1025.3 hPa Calm     74% 0 mm 0 W/m2
19:34 7.4 °C 3.2 °C 1025.3 hPa Calm     75% 0 mm 0 W/m2
19:40 7.4 °C 3.1 °C 1025.6 hPa Calm     74% 0 mm 0 W/m2
19:46 7.3 °C 3.2 °C 1025.6 hPa Calm   1.6 km/h 75% 0 mm 0 W/m2
19:52 7.3 °C 3.1 °C 1025.6 hPa Calm   3.2 km/h 75% 0 mm 0 W/m2
19:58 7.2 °C 3.1 °C 1025.6 hPa North 1.6 km/h 3.2 km/h 75% 0 mm 0 W/m2
20:03 7.2 °C 3.3 °C 1025.6 hPa WNW 1.6 km/h 1.6 km/h 76% 0 mm 0 W/m2
20:10 7.2 °C 3.1 °C 1025.6 hPa WNW 1.6 km/h 1.6 km/h 75% 0 mm 0 W/m2
20:16 7.2 °C 3.1 °C 1025.6 hPa NNW 3.2 km/h 4.8 km/h 75% 0 mm 0 W/m2
20:22 7.2 °C 2.8 °C 1026 hPa NW 3.2 km/h 4.8 km/h 74% 0 mm 0 W/m2
20:28 7.2 °C 3.1 °C 1026 hPa West 1.6 km/h 4.8 km/h 75% 0 mm 0 W/m2
20:34 7.1 °C 3 °C 1026 hPa WNW 1.6 km/h 1.6 km/h 75% 0 mm 0 W/m2
20:40 7.1 °C 2.8 °C 1026.3 hPa NNW 1.6 km/h 1.6 km/h 74% 0 mm 0 W/m2
20:46 7.1 °C 2.7 °C 1026.3 hPa NW 1.6 km/h 8 km/h 74% 0 mm 0 W/m2
20:52 7 °C 2.5 °C 1026.3 hPa West 3.2 km/h 4.8 km/h 73% 0 mm 0 W/m2
20:58 7 °C 2.7 °C 1026.6 hPa NW 4.8 km/h 6.4 km/h 74% 0 mm 0 W/m2
21:04 7 °C 2.7 °C 1026.6 hPa NW 6.4 km/h 6.4 km/h 74% 0 mm 0 W/m2
21:10 7 °C 2.7 °C 1026.6 hPa WNW 6.4 km/h 6.4 km/h 74% 0 mm 0 W/m2
21:16 7 °C 2.5 °C 1026.6 hPa NW 4.8 km/h 9.7 km/h 73% 0 mm 0 W/m2
21:22 6.9 °C 2.4 °C 1027 hPa WSW 4.8 km/h 4.8 km/h 73% 0 mm 0 W/m2
21:28 6.9 °C 2.2 °C 1027 hPa NW 4.8 km/h 11.3 km/h 72% 0 mm 0 W/m2
21:34 6.9 °C 1.8 °C 1027 hPa NW 8 km/h 16.1 km/h 70% 0 mm 0 W/m2
21:40 6.9 °C 1.8 °C 1027 hPa WNW 8 km/h 8 km/h 70% 0 mm 0 W/m2
21:46 6.8 °C 1.7 °C 1027 hPa West 6.4 km/h 8 km/h 70% 0 mm 0 W/m2
21:52 6.8 °C 1.5 °C 1027 hPa WNW 8 km/h 11.3 km/h 69% 0 mm 0 W/m2
21:58 6.8 °C 1.5 °C 1027 hPa NW 6.4 km/h 11.3 km/h 69% 0 mm 0 W/m2
22:04 6.7 °C 1.2 °C 1027 hPa WNW 8 km/h 11.3 km/h 68% 0 mm 0 W/m2
22:10 6.7 °C 1.2 °C 1027 hPa NNW 8 km/h 9.7 km/h 68% 0 mm 0 W/m2
22:16 6.6 °C 1.1 °C 1027 hPa WNW 8 km/h 11.3 km/h 68% 0 mm 0 W/m2
22:22 6.5 °C 1 °C 1027 hPa NW 8 km/h 8 km/h 68% 0 mm 0 W/m2
22:28 6.4 °C 0.9 °C 1027 hPa WNW 8 km/h 11.3 km/h 68% 0 mm 0 W/m2
22:34 6.3 °C 0.8 °C 1027.3 hPa WNW 8 km/h 11.3 km/h 68% 0 mm 0 W/m2
22:40 6.2 °C 0.9 °C 1027.3 hPa NNW 8 km/h 8 km/h 69% 0 mm 0 W/m2
22:46 6.1 °C 0.8 °C 1027.3 hPa WNW 9.7 km/h 9.7 km/h 69% 0 mm 0 W/m2
22:52 5.9 °C 1.1 °C 1027.3 hPa WNW 8 km/h 9.7 km/h 71% 0 mm 0 W/m2
22:58 5.8 °C 1.1 °C 1027.3 hPa WNW 6.4 km/h 9.7 km/h 72% 0 mm 0 W/m2
23:04 5.6 °C 1.2 °C 1027.3 hPa WSW 6.4 km/h 11.3 km/h 73% 0 mm 0 W/m2
23:10 5.5 °C 1.2 °C 1027.3 hPa NW 8 km/h 8 km/h 74% 0 mm 0 W/m2
23:16 5.4 °C 1.2 °C 1027.3 hPa WNW 6.4 km/h 8 km/h 74% 0 mm 0 W/m2
23:22 5.3 °C 1.3 °C 1027.3 hPa WNW 4.8 km/h 6.4 km/h 75% 0 mm 0 W/m2
23:28 5.3 °C 1.1 °C 1027.3 hPa NW 6.4 km/h 6.4 km/h 74% 0 mm 0 W/m2
23:34 5.2 °C 0.9 °C 1027.3 hPa NW 6.4 km/h 11.3 km/h 74% 0 mm 0 W/m2
23:39 5.2 °C 0.9 °C 1027.7 hPa WNW 8 km/h 8 km/h 74% 0 mm 0 W/m2
23:46 5.1 °C 1 °C 1027.7 hPa WNW 6.4 km/h 9.7 km/h 75% 0 mm 0 W/m2
23:52 5 °C 0.7 °C 1027.7 hPa NW 6.4 km/h 6.4 km/h 74% 0 mm 0 W/m2
23:58 4.9 °C 0.7 °C 1027.7 hPa WNW 8 km/h 9.7 km/h 74% 0 mm 0 W/m2
Country Meadow, Clay, NY, USA
Compliments of Weather Underground - 2 mb